Time;durP1;ratioP1;P1;durP2;ratioP2;P2;SDS_P1;SDS_P2;PMS_P1;PMS_P2;Temp;Humidity;BMP_temperature;BMP_pressure;BME280_temperature;BME280_humidity;BME280_pressure;Samples;Min_cycle;Max_cycle;Signal;HPM_P1;HPM_P2
2023/06/10 00:00:42;;;;;;;3.90;2.17;;;20.10;99.90;;;;;;4982196;28;20030;-79
2023/06/10 00:03:12;;;;;;;3.78;1.60;;;20.00;99.90;;;;;;4982412;28;20031;-78
2023/06/10 00:05:38;;;;;;;1.80;1.10;;;20.00;99.90;;;;;;4986915;28;20026;-79
2023/06/10 00:08:08;;;;;;;2.88;1.65;;;20.10;99.90;;;;;;5000943;28;20488;-80
2023/06/10 00:10:38;;;;;;;2.60;1.75;;;20.10;99.90;;;;;;4987733;28;20026;-78
2023/06/10 00:13:11;;;;;;;2.35;1.50;;;20.00;99.90;;;;;;4985157;28;20050;-80
2023/06/10 00:15:37;;;;;;;5.30;1.25;;;19.90;99.90;;;;;;4986238;28;20035;-80
2023/06/10 00:18:04;;;;;;;2.38;1.33;;;19.80;99.90;;;;;;4985884;28;20049;-80
2023/06/10 00:20:30;;;;;;;2.78;1.30;;;19.80;99.90;;;;;;4987930;28;20710;-80
2023/06/10 00:23:01;;;;;;;2.90;1.55;;;19.70;99.90;;;;;;4981695;28;20026;-80
2023/06/10 00:25:26;;;;;;;2.85;2.00;;;19.60;99.90;;;;;;4987577;28;20026;-80
2023/06/10 00:27:52;;;;;;;2.90;2.08;;;19.60;99.90;;;;;;4982445;28;20501;-80
2023/06/10 00:30:18;;;;;;;2.55;1.58;;;19.60;99.90;;;;;;4984493;28;21266;-79
2023/06/10 00:32:43;;;;;;;2.85;1.85;;;19.40;99.90;;;;;;4981970;28;20050;-80
2023/06/10 00:35:09;;;;;;;2.45;1.80;;;19.40;99.90;;;;;;4984245;28;20022;-80
2023/06/10 00:37:35;;;;;;;3.10;1.75;;;19.40;99.90;;;;;;4979326;28;20432;-79
2023/06/10 00:40:02;;;;;;;2.53;1.67;;;19.40;99.90;;;;;;4989634;28;20076;-79
2023/06/10 00:42:28;;;;;;;2.83;1.55;;;19.30;99.90;;;;;;4979441;28;20034;-79
2023/06/10 00:44:54;;;;;;;2.42;1.35;;;19.30;99.90;;;;;;4984936;28;20030;-80
2023/06/10 00:47:21;;;;;;;1.90;1.10;;;19.20;99.90;;;;;;4981796;28;20518;-78
2023/06/10 00:49:48;;;;;;;2.35;1.63;;;19.10;99.90;;;;;;4992072;28;20054;-79
2023/06/10 00:52:16;;;;;;;2.13;1.40;;;19.10;99.90;;;;;;4967949;28;20053;-79
2023/06/10 00:54:42;;;;;;;1.70;0.90;;;19.10;99.90;;;;;;4997078;28;20471;-79
2023/06/10 00:57:08;;;;;;;2.67;1.00;;;19.00;99.90;;;;;;4987034;28;20034;-80
2023/06/10 00:59:35;;;;;;;3.22;1.30;;;18.90;99.90;;;;;;4986316;28;20030;-79
2023/06/10 01:02:02;;;;;;;2.90;1.60;;;18.90;99.90;;;;;;4981718;28;20575;-79
2023/06/10 01:04:29;;;;;;;2.92;1.50;;;18.90;99.90;;;;;;4970241;28;20125;-78
2023/06/10 01:06:59;;;;;;;2.47;1.58;;;18.90;99.90;;;;;;4983705;28;20053;-79
2023/06/10 01:09:37;;;;;;;2.15;1.33;;;18.90;99.90;;;;;;4981095;28;20426;-79
2023/06/10 01:12:28;;;;;;;2.38;1.38;;;19.00;99.90;;;;;;4984766;28;20356;-79
2023/06/10 01:14:55;;;;;;;2.92;1.13;;;18.80;99.90;;;;;;4980145;28;20033;-78
2023/06/10 01:17:23;;;;;;;3.03;1.25;;;18.80;99.90;;;;;;4986174;28;20038;-79
2023/06/10 01:19:56;;;;;;;1.98;1.17;;;18.80;99.90;;;;;;4987552;28;20022;-79
2023/06/10 01:22:32;;;;;;;2.60;1.48;;;18.80;99.90;;;;;;4979044;28;20065;-79
2023/06/10 01:24:58;;;;;;;7.05;1.45;;;18.70;99.90;;;;;;4982558;28;20026;-79
2023/06/10 01:27:29;;;;;;;3.28;1.80;;;18.70;99.90;;;;;;4983170;28;20041;-79
2023/06/10 01:30:03;;;;;;;2.20;1.45;;;18.60;99.90;;;;;;4970645;28;20027;-79
2023/06/10 01:32:40;;;;;;;2.70;1.83;;;18.60;99.90;;;;;;4971128;28;20384;-79
2023/06/10 01:35:08;;;;;;;3.20;1.65;;;18.50;99.90;;;;;;4985548;28;20055;-79
2023/06/10 01:37:38;;;;;;;;;;;18.40;99.90;;;;;;4968813;28;20057;-78
2023/06/10 01:40:05;;;;;;;3.22;1.45;;;18.40;99.90;;;;;;4982531;28;19917;-80
2023/06/10 01:42:32;;;;;;;3.10;1.38;;;18.40;99.90;;;;;;4983408;28;20023;-79
2023/06/10 01:44:58;;;;;;;2.63;1.60;;;18.30;99.90;;;;;;4999283;28;20026;-80
2023/06/10 01:47:24;;;;;;;3.08;1.50;;;18.30;99.90;;;;;;4988279;28;20022;-79
2023/06/10 01:49:50;;;;;;;2.85;1.50;;;18.20;99.90;;;;;;4988347;28;20030;-80
2023/06/10 01:52:16;;;;;;;2.05;1.25;;;18.30;99.90;;;;;;4983710;28;20551;-79
2023/06/10 01:54:43;;;;;;;2.90;1.52;;;18.20;99.90;;;;;;4989269;28;20069;-80
2023/06/10 01:57:08;;;;;;;2.47;1.48;;;18.20;99.90;;;;;;4985530;28;20030;-79
2023/06/10 01:59:36;;;;;;;4.28;2.40;;;18.20;99.90;;;;;;4983559;28;20030;-79
2023/06/10 02:02:02;;;;;;;3.33;2.00;;;18.20;99.90;;;;;;4968417;28;20022;-80
2023/06/10 02:04:27;;;;;;;3.78;1.75;;;18.20;99.90;;;;;;4988549;28;20042;-79
2023/06/10 02:06:53;;;;;;;2.67;1.80;;;18.10;99.90;;;;;;4984474;28;20621;-79
2023/06/10 02:09:19;;;;;;;2.30;1.77;;;18.10;99.90;;;;;;4989436;28;20593;-80
2023/06/10 02:11:44;;;;;;;4.68;2.00;;;18.00;99.90;;;;;;4982647;28;20072;-79
2023/06/10 02:14:10;;;;;;;3.72;2.15;;;18.10;99.90;;;;;;4990495;28;20505;-79
2023/06/10 02:16:36;;;;;;;2.92;2.30;;;18.00;99.90;;;;;;4989772;28;20486;-79
2023/06/10 02:19:05;;;;;;;5.20;2.75;;;18.00;99.90;;;;;;4984175;28;20029;-79
2023/06/10 02:21:31;;;;;;;1.80;1.30;;;18.00;99.90;;;;;;4985843;28;20050;-79
2023/06/10 02:23:57;;;;;;;2.75;1.77;;;17.90;99.90;;;;;;5006049;28;20080;-79
2023/06/10 02:26:22;;;;;;;2.35;1.20;;;17.90;99.90;;;;;;4982409;28;20026;-80
2023/06/10 02:28:48;;;;;;;2.28;1.58;;;17.80;99.90;;;;;;4990311;28;20058;-79
2023/06/10 02:31:14;;;;;;;2.33;1.73;;;17.80;99.90;;;;;;4984274;28;20041;-80
2023/06/10 02:33:40;;;;;;;3.15;1.90;;;17.70;99.90;;;;;;4982324;28;20037;-79
2023/06/10 02:36:06;;;;;;;3.38;1.80;;;17.70;99.90;;;;;;4989323;28;20026;-79
2023/06/10 02:38:32;;;;;;;3.42;1.73;;;17.60;99.90;;;;;;4982433;28;20110;-79
2023/06/10 02:40:58;;;;;;;3.10;2.15;;;17.60;99.90;;;;;;4989433;28;20041;-79
2023/06/10 02:43:24;;;;;;;3.10;1.48;;;17.60;99.90;;;;;;4990159;28;20030;-79
2023/06/10 02:45:50;;;;;;;2.80;1.23;;;17.70;99.90;;;;;;4989456;28;20117;-79
2023/06/10 02:48:17;;;;;;;2.65;1.88;;;17.50;99.90;;;;;;4969153;28;20039;-78
2023/06/10 02:50:43;;;;;;;2.13;1.52;;;17.60;99.90;;;;;;4997582;28;20022;-79
2023/06/10 02:53:16;;;;;;;4.63;1.98;;;17.50;99.90;;;;;;4985682;28;20022;-79
2023/06/10 02:55:47;;;;;;;3.42;1.10;;;17.50;99.90;;;;;;4981626;28;20031;-79
2023/06/10 02:58:15;;;;;;;3.10;1.33;;;17.50;99.90;;;;;;4988609;28;20391;-78
2023/06/10 03:00:43;;;;;;;2.67;1.08;;;17.50;99.90;;;;;;4980485;28;21229;-80
2023/06/10 03:03:10;;;;;;;2.33;1.15;;;17.40;99.90;;;;;;4986648;28;20034;-79
2023/06/10 03:05:43;;;;;;;4.05;1.70;;;17.40;99.90;;;;;;4987716;28;20122;-80
2023/06/10 03:08:09;;;;;;;3.50;1.25;;;17.40;99.90;;;;;;4984447;28;20137;-80
2023/06/10 03:10:37;;;;;;;2.20;1.10;;;17.30;99.90;;;;;;4972681;28;20018;-79
2023/06/10 03:13:03;;;;;;;2.63;1.35;;;17.30;99.90;;;;;;4984038;28;20038;-79
2023/06/10 03:15:32;;;;;;;2.22;1.02;;;17.30;99.90;;;;;;4983805;28;20019;-79
2023/06/10 03:18:00;;;;;;;2.55;1.30;;;17.30;99.90;;;;;;4986139;28;20049;-79
2023/06/10 03:20:27;;;;;;;2.75;1.95;;;17.30;99.90;;;;;;4989248;28;20039;-79
2023/06/10 03:22:53;;;;;;;2.63;1.27;;;17.30;99.90;;;;;;4971981;28;20030;-79
2023/06/10 03:25:20;;;;;;;2.63;1.17;;;17.30;99.90;;;;;;4986483;28;20064;-79
2023/06/10 03:27:48;;;;;;;3.08;1.83;;;17.20;99.90;;;;;;4985181;28;20510;-80
2023/06/10 03:30:14;;;;;;;3.45;1.30;;;17.20;99.90;;;;;;4985114;28;20027;-79
2023/06/10 03:32:40;;;;;;;2.53;1.63;;;17.20;99.90;;;;;;4979845;28;20037;-79
2023/06/10 03:35:08;;;;;;;3.35;1.65;;;17.20;99.90;;;;;;4986977;28;20101;-79
2023/06/10 03:37:33;;;;;;;3.90;1.48;;;17.10;99.90;;;;;;4986375;28;20071;-79
2023/06/10 03:39:59;;;;;;;2.75;1.40;;;17.10;99.90;;;;;;4985289;28;20483;-80
2023/06/10 03:42:25;;;;;;;3.05;1.45;;;17.20;99.90;;;;;;5001325;28;20041;-79
2023/06/10 03:44:51;;;;;;;3.45;1.83;;;17.10;99.90;;;;;;4981818;28;20015;-79
2023/06/10 03:47:17;;;;;;;3.65;1.67;;;17.10;99.90;;;;;;4987354;28;20034;-79
2023/06/10 03:49:43;;;;;;;2.40;1.10;;;17.00;99.90;;;;;;4990704;28;20498;-79
2023/06/10 03:52:09;;;;;;;2.25;1.20;;;17.10;99.90;;;;;;4983303;28;20034;-79
2023/06/10 03:54:35;;;;;;;2.25;1.17;;;17.10;99.90;;;;;;4983258;28;20056;-79
2023/06/10 03:57:03;;;;;;;2.80;1.60;;;17.10;99.90;;;;;;4989635;28;20018;-79
2023/06/10 03:59:29;;;;;;;3.80;1.67;;;17.10;99.90;;;;;;4966165;28;20023;-79
2023/06/10 04:01:55;;;;;;;3.60;1.60;;;17.10;99.90;;;;;;4987272;28;20432;-79
2023/06/10 04:04:23;;;;;;;2.63;1.60;;;17.20;99.90;;;;;;4989738;28;20562;-79
2023/06/10 04:06:49;;;;;;;2.33;1.30;;;17.10;99.90;;;;;;4986597;28;20073;-79
2023/06/10 04:09:16;;;;;;;2.20;1.30;;;17.10;99.90;;;;;;4979999;28;20082;-79
2023/06/10 04:11:41;;;;;;;5.57;1.98;;;17.10;99.90;;;;;;4968691;28;20749;-79
2023/06/10 04:14:08;;;;;;;3.80;2.08;;;17.10;99.90;;;;;;4983135;28;20018;-79
2023/06/10 04:16:35;;;;;;;3.72;1.67;;;17.00;99.90;;;;;;4988262;28;20023;-79
2023/06/10 04:19:01;;;;;;;3.05;1.33;;;17.10;99.90;;;;;;5003627;28;20212;-79
2023/06/10 04:21:29;;;;;;;3.42;1.92;;;17.20;99.90;;;;;;4983117;28;20562;-78
2023/06/10 04:23:55;;;;;;;3.08;1.23;;;17.20;99.90;;;;;;4985658;28;20018;-79
2023/06/10 04:26:21;;;;;;;2.10;1.30;;;17.30;99.90;;;;;;5002516;28;20109;-79
2023/06/10 04:28:47;;;;;;;3.70;1.55;;;17.30;99.90;;;;;;4984855;28;20045;-79
2023/06/10 04:31:13;;;;;;;4.47;1.67;;;17.30;99.90;;;;;;4987643;28;20125;-80
2023/06/10 04:33:42;;;;;;;3.88;1.35;;;17.40;99.90;;;;;;4988288;28;20057;-79
2023/06/10 04:36:08;;;;;;;4.35;1.70;;;17.50;99.90;;;;;;5004043;28;20054;-80
2023/06/10 04:38:35;;;;;;;3.30;1.52;;;17.60;99.90;;;;;;4984741;28;20073;-79
2023/06/10 04:41:01;;;;;;;4.05;2.25;;;17.70;99.90;;;;;;4983901;28;20395;-79
2023/06/10 04:43:30;;;;;;;2.72;1.20;;;17.90;99.90;;;;;;4986122;28;20018;-80
2023/06/10 04:45:56;;;;;;;2.70;1.77;;;17.90;99.90;;;;;;5004735;28;20037;-80
2023/06/10 04:48:23;;;;;;;5.45;2.17;;;18.00;99.90;;;;;;4987269;28;20434;-80
2023/06/10 04:50:50;;;;;;;2.97;1.35;;;18.10;99.90;;;;;;4984229;28;20036;-80
2023/06/10 04:53:16;;;;;;;4.63;1.52;;;18.30;99.90;;;;;;4966930;28;20022;-78
2023/06/10 04:55:45;;;;;;;4.13;1.50;;;18.50;99.90;;;;;;4970743;28;20117;-80
2023/06/10 04:58:10;;;;;;;2.30;1.30;;;18.50;99.90;;;;;;4982433;28;20467;-79
2023/06/10 05:00:36;;;;;;;4.57;1.73;;;18.70;99.90;;;;;;4984027;28;20032;-80
2023/06/10 05:03:02;;;;;;;2.70;1.42;;;18.80;99.90;;;;;;4986203;28;20041;-80
2023/06/10 05:05:27;;;;;;;3.40;1.60;;;18.90;99.90;;;;;;4977681;28;20061;-79
2023/06/10 05:07:53;;;;;;;4.68;1.50;;;18.90;99.90;;;;;;4980409;28;20042;-80
2023/06/10 05:10:19;;;;;;;3.08;1.85;;;19.00;99.90;;;;;;4982246;28;20059;-79
2023/06/10 05:12:45;;;;;;;2.35;1.45;;;19.20;99.90;;;;;;4983341;28;20030;-80
2023/06/10 05:15:11;;;;;;;4.85;1.65;;;19.30;99.90;;;;;;4981966;28;20034;-80
2023/06/10 05:17:37;;;;;;;3.50;1.65;;;19.30;99.90;;;;;;4997445;28;20037;-80
2023/06/10 05:20:03;;;;;;;4.25;1.92;;;19.30;99.90;;;;;;4977540;28;20030;-80
2023/06/10 05:22:29;;;;;;;3.58;1.80;;;19.40;99.90;;;;;;4979230;28;20069;-81
2023/06/10 05:24:55;;;;;;;2.35;1.27;;;19.60;99.90;;;;;;4982314;28;20116;-81
2023/06/10 05:27:22;;;;;;;3.03;1.17;;;19.70;99.90;;;;;;4982142;28;20050;-80
2023/06/10 05:29:47;;;;;;;3.15;1.92;;;19.80;99.90;;;;;;4981407;28;20027;-79
2023/06/10 05:32:13;;;;;;;4.15;1.88;;;19.80;99.90;;;;;;4997204;28;20077;-80
2023/06/10 05:34:39;;;;;;;3.10;1.58;;;19.90;99.90;;;;;;4978548;28;20468;-80
2023/06/10 05:37:05;;;;;;;3.72;2.10;;;20.00;99.90;;;;;;4979776;28;20089;-81
2023/06/10 05:39:31;;;;;;;3.45;1.70;;;20.10;99.90;;;;;;4997216;28;20054;-80
2023/06/10 05:41:58;;;;;;;3.75;1.95;;;20.20;99.90;;;;;;4999055;28;20547;-80
2023/06/10 05:44:24;;;;;;;5.47;2.00;;;20.30;99.90;;;;;;4980118;28;20034;-81
2023/06/10 05:46:51;;;;;;;3.92;2.05;;;20.40;99.90;;;;;;4980930;28;20022;-79
2023/06/10 05:49:16;;;;;;;2.85;1.40;;;20.60;99.90;;;;;;4997386;28;20498;-80
2023/06/10 05:51:42;;;;;;;3.72;1.70;;;20.70;99.90;;;;;;4980254;28;20014;-81
2023/06/10 05:54:09;;;;;;;3.90;1.83;;;20.90;99.90;;;;;;4980236;28;20417;-80
2023/06/10 05:56:35;;;;;;;3.67;1.38;;;21.00;99.90;;;;;;4983043;28;20058;-81
2023/06/10 05:59:00;;;;;;;3.28;1.80;;;21.10;99.90;;;;;;4970154;28;20375;-81
2023/06/10 06:01:29;;;;;;;4.00;1.70;;;21.10;99.90;;;;;;4991663;28;20066;-81
2023/06/10 06:04:36;;;;;;;3.70;1.98;;;21.00;99.90;;;;;;5011040;28;20026;-82
2023/06/10 06:07:02;;;;;;;3.22;1.23;;;21.30;99.90;;;;;;5002157;28;20084;-81
2023/06/10 06:09:27;;;;;;;2.83;1.17;;;21.40;99.90;;;;;;4980671;28;20065;-80
2023/06/10 06:11:53;;;;;;;4.15;1.63;;;21.60;99.90;;;;;;4981646;28;20027;-80
2023/06/10 06:14:19;;;;;;;2.92;1.35;;;21.70;99.90;;;;;;4982540;28;20034;-79
2023/06/10 06:16:47;;;;;;;3.70;1.63;;;21.90;99.90;;;;;;4966940;28;20026;-80
2023/06/10 06:19:13;;;;;;;3.05;1.58;;;22.00;99.90;;;;;;4978693;28;20051;-80
2023/06/10 06:21:39;;;;;;;3.72;1.52;;;22.00;99.90;;;;;;4981153;28;20051;-80
2023/06/10 06:24:05;;;;;;;5.07;1.88;;;22.20;99.90;;;;;;4981382;28;20148;-80
2023/06/10 06:26:30;;;;;;;3.65;1.20;;;22.40;99.90;;;;;;4983962;28;20407;-81
2023/06/10 06:28:56;;;;;;;2.70;1.63;;;22.50;99.90;;;;;;4985996;28;20034;-81
2023/06/10 06:31:22;;;;;;;2.42;1.33;;;22.60;99.90;;;;;;4987616;28;20082;-80
2023/06/10 06:33:47;;;;;;;3.70;1.90;;;22.70;99.90;;;;;;4983125;28;20027;-80
2023/06/10 06:36:13;;;;;;;3.67;1.58;;;22.70;99.90;;;;;;4989522;28;20045;-80
2023/06/10 06:38:39;;;;;;;4.05;1.58;;;22.70;99.90;;;;;;5001403;28;20027;-80
2023/06/10 06:41:06;;;;;;;2.70;1.40;;;22.90;99.90;;;;;;4986136;28;20514;-80
2023/06/10 06:43:32;;;;;;;2.95;1.23;;;23.00;99.90;;;;;;4982457;28;20105;-80
2023/06/10 06:46:30;;;;;;;3.33;1.30;;;23.20;99.90;;;;;;4978979;28;20034;-80
2023/06/10 06:48:55;;;;;;;3.13;2.03;;;23.30;99.90;;;;;;4999574;28;20030;-80
2023/06/10 06:51:21;;;;;;;2.65;1.67;;;23.20;99.90;;;;;;4984247;28;20493;-81
2023/06/10 06:53:49;;;;;;;2.83;1.60;;;23.40;99.90;;;;;;4988094;28;20310;-81
2023/06/10 06:56:15;;;;;;;4.13;1.50;;;23.40;99.90;;;;;;4988681;28;20034;-82
2023/06/10 06:58:41;;;;;;;5.15;1.95;;;23.40;99.90;;;;;;4987604;28;20033;-80
2023/06/10 07:01:07;;;;;;;2.47;1.10;;;23.40;99.90;;;;;;4986331;28;20026;-81
2023/06/10 07:03:32;;;;;;;2.53;1.17;;;23.70;99.90;;;;;;4983545;28;20402;-81
2023/06/10 07:05:58;;;;;;;3.38;1.98;;;24.00;99.90;;;;;;4969437;28;20460;-81
2023/06/10 07:08:24;;;;;;;3.35;1.77;;;23.80;99.90;;;;;;4984015;28;20042;-80
2023/06/10 07:10:50;;;;;;;3.70;1.63;;;23.60;99.90;;;;;;4996798;28;20022;-81
2023/06/10 07:13:15;;;;;;;2.92;1.33;;;23.90;99.90;;;;;;4986690;28;20064;-81
2023/06/10 07:15:41;;;;;;;4.65;1.83;;;24.20;99.90;;;;;;4982078;28;20110;-82
2023/06/10 07:18:07;;;;;;;3.55;1.95;;;24.20;99.90;;;;;;4999338;28;20501;-82
2023/06/10 07:20:32;;;;;;;4.68;1.15;;;24.20;99.90;;;;;;4981156;28;20054;-81
2023/06/10 07:22:58;;;;;;;2.63;1.55;;;24.30;99.90;;;;;;4984273;28;20065;-82
2023/06/10 07:25:24;;;;;;;3.40;1.25;;;24.40;99.90;;;;;;4984578;28;20057;-80
2023/06/10 07:27:49;;;;;;;2.92;1.13;;;24.40;99.90;;;;;;4985604;28;20138;-80
2023/06/10 07:30:15;;;;;;;3.80;1.73;;;24.60;99.90;;;;;;4996801;28;20030;-79
2023/06/10 07:32:41;;;;;;;4.95;1.65;;;24.80;99.90;;;;;;4995469;28;20045;-80
2023/06/10 07:35:09;;;;;;;4.03;1.67;;;25.10;99.90;;;;;;4982484;28;20053;-80
2023/06/10 07:37:35;;;;;;;2.60;1.10;;;24.90;99.90;;;;;;4981440;28;20030;-80
2023/06/10 07:40:01;;;;;;;2.22;1.25;;;25.20;99.90;;;;;;4984668;28;20502;-81
2023/06/10 07:42:26;;;;;;;2.45;1.05;;;25.40;99.90;;;;;;4994830;28;20031;-80
2023/06/10 07:44:52;;;;;;;2.10;1.00;;;25.20;99.90;;;;;;4980337;28;20023;-80
2023/06/10 07:47:18;;;;;;;2.67;1.35;;;25.60;99.90;;;;;;4981299;28;20038;-81
2023/06/10 07:49:44;;;;;;;3.05;1.25;;;25.70;99.90;;;;;;4988098;28;20030;-81
2023/06/10 07:52:09;;;;;;;3.42;1.35;;;25.60;99.90;;;;;;4986941;28;20034;-81
2023/06/10 07:54:35;;;;;;;4.82;1.42;;;25.50;99.90;;;;;;4981612;28;20487;-79
2023/06/10 07:57:01;;;;;;;3.58;1.48;;;25.50;99.90;;;;;;4981344;28;20027;-81
2023/06/10 07:59:27;;;;;;;4.05;1.15;;;25.60;99.90;;;;;;4988160;28;20360;-81
2023/06/10 08:01:53;;;;;;;4.25;1.55;;;25.90;99.90;;;;;;4985153;28;20029;-83
2023/06/10 08:04:19;;;;;;;3.72;2.00;;;25.90;99.90;;;;;;4979101;28;20038;-82
2023/06/10 08:06:44;;;;;;;4.82;1.75;;;25.60;99.90;;;;;;4982200;28;20074;-81
2023/06/10 08:09:10;;;;;;;5.25;1.85;;;25.70;99.90;;;;;;4984562;28;20399;-83
2023/06/10 08:11:36;;;;;;;3.30;1.17;;;25.90;99.90;;;;;;4980795;28;20026;-82
2023/06/10 08:14:02;;;;;;;3.55;1.60;;;26.00;99.90;;;;;;4986434;28;20023;-81
2023/06/10 08:16:27;;;;;;;3.63;1.00;;;26.20;99.90;;;;;;4983383;28;20037;-81
2023/06/10 08:18:53;;;;;;;2.92;1.70;;;26.50;99.90;;;;;;4983079;28;20026;-81
2023/06/10 08:21:19;;;;;;;3.25;1.08;;;26.70;99.90;;;;;;4999647;28;20351;-81
2023/06/10 08:23:45;;;;;;;3.15;1.67;;;26.60;99.90;;;;;;4983969;28;20022;-81
2023/06/10 08:26:10;;;;;;;2.58;1.20;;;26.70;99.90;;;;;;4984392;28;20472;-81
2023/06/10 08:28:36;;;;;;;3.85;1.20;;;27.00;99.90;;;;;;4981343;28;20610;-81
2023/06/10 08:31:02;;;;;;;4.75;1.42;;;27.20;99.90;;;;;;4982717;28;20024;-80
2023/06/10 08:33:27;;;;;;;2.08;1.13;;;27.10;99.90;;;;;;4982851;28;20125;-81
2023/06/10 08:35:53;;;;;;;2.33;1.13;;;27.30;99.90;;;;;;4979370;28;20033;-80
2023/06/10 08:38:19;;;;;;;2.78;1.08;;;27.20;99.90;;;;;;5002325;28;20042;-81
2023/06/10 08:40:45;;;;;;;4.10;1.17;;;27.20;99.90;;;;;;4986776;28;20038;-81
2023/06/10 08:43:36;;;;;;;4.15;1.38;;;27.20;99.90;;;;;;4984800;28;20033;-81
2023/06/10 08:46:03;;;;;;;2.55;1.17;;;27.30;99.90;;;;;;4985170;28;20486;-82
2023/06/10 08:48:31;;;;;;;3.15;1.00;;;27.40;99.90;;;;;;4998600;28;20383;-81
2023/06/10 08:50:58;;;;;;;2.38;1.00;;;27.80;99.90;;;;;;4982032;28;20018;-81
2023/06/10 08:53:25;;;;;;;3.38;1.13;;;27.60;99.90;;;;;;4983414;28;20034;-81
2023/06/10 08:55:52;;;;;;;1.38;0.70;;;27.50;99.90;;;;;;4979803;28;20041;-82
2023/06/10 08:58:19;;;;;;;1.80;0.80;;;27.80;99.90;;;;;;4982533;28;20034;-80
2023/06/10 09:00:45;;;;;;;2.53;0.98;;;28.00;99.90;;;;;;4983176;28;20419;-81
2023/06/10 09:03:11;;;;;;;2.47;0.95;;;28.40;99.90;;;;;;4979128;28;20407;-80
2023/06/10 09:05:37;;;;;;;2.72;0.80;;;28.40;99.90;;;;;;4982326;28;20526;-81
2023/06/10 09:08:05;;;;;;;3.85;0.93;;;28.40;99.90;;;;;;4995414;28;20455;-81
2023/06/10 09:10:32;;;;;;;1.90;0.90;;;28.60;99.90;;;;;;4984392;28;20038;-81
2023/06/10 09:12:57;;;;;;;4.32;1.25;;;28.50;99.90;;;;;;4985770;28;20034;-81
2023/06/10 09:15:23;;;;;;;1.92;0.88;;;28.40;99.90;;;;;;4980489;28;20022;-81
2023/06/10 09:17:51;;;;;;;1.73;0.70;;;28.60;99.60;;;;;;4985582;28;20050;-82
2023/06/10 09:20:16;;;;;;;2.33;0.80;;;28.60;99.80;;;;;;4980911;28;20057;-81
2023/06/10 09:22:42;;;;;;;2.03;0.70;;;28.70;99.80;;;;;;4985321;28;20022;-81
2023/06/10 09:25:10;;;;;;;1.70;0.90;;;29.00;99.90;;;;;;4998963;28;20041;-82
2023/06/10 09:27:50;;;;;;;1.40;0.70;;;28.60;98.90;;;;;;4999908;28;20053;-81
2023/06/10 09:30:35;;;;;;;2.17;0.70;;;29.00;99.30;;;;;;4981229;28;20034;-81
2023/06/10 09:33:08;;;;;;;2.50;0.90;;;29.20;98.90;;;;;;4996666;28;20037;-81
2023/06/10 09:35:34;;;;;;;2.00;0.73;;;29.00;98.60;;;;;;4998266;28;20410;-81
2023/06/10 09:38:00;;;;;;;1.55;0.82;;;29.30;98.90;;;;;;4985759;28;20042;-82
2023/06/10 09:40:27;;;;;;;1.52;0.70;;;29.30;99.10;;;;;;4978730;28;20674;-83
2023/06/10 09:42:55;;;;;;;5.20;0.82;;;29.30;98.70;;;;;;4978757;28;20038;-81
2023/06/10 09:45:21;;;;;;;2.75;0.75;;;29.20;98.10;;;;;;4982261;28;20201;-82
2023/06/10 09:47:51;;;;;;;2.20;1.10;;;29.40;98.40;;;;;;4993309;28;20035;-82
2023/06/10 09:50:17;;;;;;;2.10;0.88;;;29.50;98.20;;;;;;4981284;28;20023;-81
2023/06/10 09:52:46;;;;;;;2.78;0.80;;;29.20;98.20;;;;;;4979948;28;20324;-81
2023/06/10 09:55:12;;;;;;;3.10;0.93;;;29.40;98.30;;;;;;4981639;28;20039;-81
2023/06/10 09:57:38;;;;;;;2.50;0.70;;;29.50;97.30;;;;;;4982330;28;20096;-82
2023/06/10 10:00:11;;;;;;;1.73;0.70;;;29.60;97.80;;;;;;4982501;28;20026;-82
2023/06/10 10:02:51;;;;;;;3.10;0.90;;;30.00;98.30;;;;;;4981789;28;20156;-81
2023/06/10 10:05:18;;;;;;;3.70;0.73;;;29.90;97.40;;;;;;5000372;28;20034;-82
2023/06/10 10:07:45;;;;;;;2.25;0.98;;;30.00;97.40;;;;;;4987208;28;20022;-82
2023/06/10 10:10:12;;;;;;;2.42;0.77;;;30.30;97.30;;;;;;4983701;28;20093;-81
2023/06/10 10:12:39;;;;;;;2.58;0.73;;;30.10;97.10;;;;;;4988568;28;20427;-81
2023/06/10 10:15:09;;;;;;;2.78;0.98;;;30.40;97.20;;;;;;4983686;28;20102;-81
2023/06/10 10:17:44;;;;;;;1.50;0.70;;;30.50;97.30;;;;;;4989149;28;20046;-81
2023/06/10 10:20:12;;;;;;;3.33;0.90;;;30.60;97.20;;;;;;4980259;28;20026;-80
2023/06/10 10:22:40;;;;;;;2.20;0.77;;;30.40;97.00;;;;;;4999753;28;20042;-82
2023/06/10 10:25:23;;;;;;;1.73;0.60;;;30.10;96.70;;;;;;4986580;28;20022;-80
2023/06/10 10:27:54;;;;;;;2.13;0.80;;;29.80;96.30;;;;;;4986210;28;20139;-81
2023/06/10 10:30:21;;;;;;;2.75;0.90;;;30.10;96.20;;;;;;4988737;28;20091;-81
2023/06/10 10:33:22;;;;;;;1.17;0.50;;;30.20;96.50;;;;;;4998436;28;20031;-81
2023/06/10 10:35:49;;;;;;;2.65;0.60;;;30.50;95.60;;;;;;4996612;28;20064;-80
2023/06/10 10:38:15;;;;;;;2.38;0.80;;;30.60;95.10;;;;;;4971326;28;20043;-81
2023/06/10 10:40:43;;;;;;;3.15;0.60;;;30.50;94.90;;;;;;4966748;28;20026;-82
2023/06/10 10:43:10;;;;;;;1.38;0.60;;;30.60;95.10;;;;;;4988963;28;20026;-82
2023/06/10 10:45:36;;;;;;;0.98;0.57;;;30.60;94.40;;;;;;5003270;28;20034;-81
2023/06/10 10:48:11;;;;;;;2.25;0.47;;;30.60;94.00;;;;;;4984144;28;20088;-81
2023/06/10 10:50:37;;;;;;;1.33;0.60;;;30.90;94.10;;;;;;4982366;28;20484;-81
2023/06/10 10:53:05;;;;;;;2.17;0.63;;;31.10;93.90;;;;;;4986468;28;20031;-81
2023/06/10 10:55:31;;;;;;;2.35;0.50;;;30.70;93.80;;;;;;4971031;28;20034;-81
2023/06/10 10:58:08;;;;;;;1.60;0.52;;;31.00;94.30;;;;;;4983538;28;20053;-80
2023/06/10 11:00:35;;;;;;;1.20;0.52;;;30.90;93.70;;;;;;4984169;28;20027;-81
2023/06/10 11:03:05;;;;;;;1.45;0.57;;;30.90;93.80;;;;;;4980036;28;20066;-81
2023/06/10 11:05:39;;;;;;;1.33;0.57;;;31.00;94.30;;;;;;4985058;28;20104;-81
2023/06/10 11:08:06;;;;;;;1.73;0.63;;;31.00;93.90;;;;;;4984054;28;20078;-81
2023/06/10 11:10:36;;;;;;;1.83;0.65;;;31.30;94.00;;;;;;4979927;28;20109;-80
2023/06/10 11:13:15;;;;;;;2.05;0.65;;;31.40;93.90;;;;;;4984706;28;20069;-81
2023/06/10 11:15:49;;;;;;;1.70;0.70;;;31.30;92.80;;;;;;4981344;28;20022;-80
2023/06/10 11:18:22;;;;;;;2.30;0.70;;;31.30;93.10;;;;;;4999772;28;20042;-80
2023/06/10 11:20:55;;;;;;;1.33;0.50;;;31.50;93.70;;;;;;4997201;28;20046;-82
2023/06/10 11:23:41;;;;;;;2.05;0.50;;;31.60;93.10;;;;;;4978364;28;20511;-81
2023/06/10 11:26:12;;;;;;;2.00;0.70;;;31.60;93.40;;;;;;4983982;28;20089;-80
2023/06/10 11:28:39;;;;;;;1.80;0.60;;;31.50;92.10;;;;;;4988873;28;20467;-80
2023/06/10 11:31:04;;;;;;;1.98;0.70;;;31.40;93.10;;;;;;4982753;28;20479;-80
2023/06/10 11:33:31;;;;;;;2.75;0.68;;;31.60;92.70;;;;;;4981536;28;20131;-80
2023/06/10 11:35:58;;;;;;;3.45;0.70;;;31.80;92.60;;;;;;4996983;28;20396;-81
2023/06/10 11:38:24;;;;;;;1.25;0.50;;;31.40;92.50;;;;;;4974238;28;20045;-81
2023/06/10 11:40:50;;;;;;;1.15;0.50;;;31.50;92.70;;;;;;4988984;28;20030;-81
2023/06/10 11:43:17;;;;;;;2.03;0.60;;;31.40;92.70;;;;;;4987794;28;20039;-81
2023/06/10 11:45:43;;;;;;;1.77;0.57;;;31.60;93.00;;;;;;4987675;28;20141;-80
2023/06/10 11:48:10;;;;;;;1.50;0.50;;;31.80;93.00;;;;;;4983393;28;20069;-81
2023/06/10 11:50:37;;;;;;;2.90;0.80;;;32.00;92.30;;;;;;4982965;28;20070;-81
2023/06/10 11:53:03;;;;;;;1.65;0.65;;;31.90;92.30;;;;;;5001052;28;20387;-80
2023/06/10 11:55:50;;;;;;;3.05;0.70;;;31.90;92.80;;;;;;4983562;28;20395;-81
2023/06/10 11:58:21;;;;;;;4.20;0.70;;;32.00;93.10;;;;;;4987274;28;20038;-81
2023/06/10 12:00:48;;;;;;;2.30;0.60;;;31.90;91.90;;;;;;4982598;28;20030;-80
2023/06/10 12:03:15;;;;;;;1.17;0.50;;;31.30;92.10;;;;;;4985739;28;20042;-79
2023/06/10 12:05:52;;;;;;;1.30;0.60;;;31.70;92.30;;;;;;4983304;28;20042;-81
2023/06/10 12:08:18;;;;;;;1.70;0.60;;;32.10;92.30;;;;;;4983021;28;20057;-81
2023/06/10 12:10:44;;;;;;;1.17;0.50;;;31.90;92.40;;;;;;4982405;28;20100;-81
2023/06/10 12:13:10;;;;;;;1.65;0.70;;;32.30;91.60;;;;;;4981219;28;20026;-81
2023/06/10 12:15:35;;;;;;;2.28;0.90;;;32.00;91.60;;;;;;4997230;28;20027;-81
2023/06/10 12:18:02;;;;;;;1.80;0.70;;;31.50;91.60;;;;;;4983591;28;20042;-81
2023/06/10 12:20:31;;;;;;;1.10;0.50;;;31.80;91.90;;;;;;4981477;28;20045;-81
2023/06/10 12:22:57;;;;;;;;;;;31.80;92.10;;;;;;4984458;28;20030;-82
2023/06/10 12:25:29;;;;;;;2.05;0.60;;;32.30;91.70;;;;;;4998695;28;20013;-82
2023/06/10 12:27:57;;;;;;;1.40;0.60;;;32.00;92.00;;;;;;4982161;28;20037;-82
2023/06/10 12:30:26;;;;;;;1.92;0.55;;;31.90;92.20;;;;;;4982456;28;20083;-81
2023/06/10 12:32:53;;;;;;;2.47;0.70;;;32.00;92.30;;;;;;4979042;28;20058;-82
2023/06/10 12:35:21;;;;;;;1.80;0.73;;;32.00;91.60;;;;;;4983863;28;20471;-81
2023/06/10 12:38:00;;;;;;;2.28;0.60;;;31.70;91.20;;;;;;4979966;28;20557;-81
2023/06/10 12:40:31;;;;;;;1.20;0.60;;;31.90;91.40;;;;;;4982160;28;20032;-81
2023/06/10 12:42:58;;;;;;;1.38;0.70;;;31.70;91.30;;;;;;4996308;28;20379;-82
2023/06/10 12:45:32;;;;;;;1.73;0.70;;;32.20;91.10;;;;;;4983607;28;20030;-82
2023/06/10 12:48:11;;;;;;;1.20;0.60;;;31.80;91.10;;;;;;4984833;28;20447;-81
2023/06/10 12:50:42;;;;;;;1.40;0.73;;;31.80;91.30;;;;;;4983146;28;20081;-81